sensor_id;sensor_type;location;lat;lon;timestamp;P1;durP1;ratioP1;P2;durP2;ratioP2
24259;SDS011;12384;48.112;18.418;2023-04-01T00:01:12;14.93;;;14.03;;
24259;SDS011;12384;48.112;18.418;2023-04-01T00:03:42;14.53;;;13.63;;
24259;SDS011;12384;48.112;18.418;2023-04-01T00:06:13;15.07;;;14.17;;
24259;SDS011;12384;48.112;18.418;2023-04-01T00:08:43;15.23;;;14.23;;
24259;SDS011;12384;48.112;18.418;2023-04-01T00:11:13;14.87;;;13.97;;
24259;SDS011;12384;48.112;18.418;2023-04-01T00:13:42;14.70;;;13.80;;
24259;SDS011;12384;48.112;18.418;2023-04-01T00:16:11;15.07;;;14.07;;
24259;SDS011;12384;48.112;18.418;2023-04-01T00:18:48;14.67;;;13.67;;
24259;SDS011;12384;48.112;18.418;2023-04-01T00:21:20;15.90;;;14.73;;
24259;SDS011;12384;48.112;18.418;2023-04-01T00:23:48;15.33;;;14.43;;
24259;SDS011;12384;48.112;18.418;2023-04-01T00:26:18;16.37;;;15.27;;
24259;SDS011;12384;48.112;18.418;2023-04-01T00:28:48;15.67;;;14.67;;
24259;SDS011;12384;48.112;18.418;2023-04-01T00:31:17;15.40;;;14.50;;
24259;SDS011;12384;48.112;18.418;2023-04-01T00:33:47;16.00;;;14.90;;
24259;SDS011;12384;48.112;18.418;2023-04-01T00:36:16;15.30;;;14.40;;
24259;SDS011;12384;48.112;18.418;2023-04-01T00:38:48;15.57;;;14.57;;
24259;SDS011;12384;48.112;18.418;2023-04-01T00:41:18;15.37;;;14.40;;
24259;SDS011;12384;48.112;18.418;2023-04-01T00:43:49;15.37;;;14.37;;
24259;SDS011;12384;48.112;18.418;2023-04-01T00:46:18;15.20;;;14.30;;
24259;SDS011;12384;48.112;18.418;2023-04-01T00:48:48;15.67;;;14.57;;
24259;SDS011;12384;48.112;18.418;2023-04-01T00:51:20;14.90;;;14.00;;
24259;SDS011;12384;48.112;18.418;2023-04-01T00:53:53;14.87;;;13.97;;
24259;SDS011;12384;48.112;18.418;2023-04-01T00:56:25;15.00;;;14.00;;
24259;SDS011;12384;48.112;18.418;2023-04-01T00:58:58;15.10;;;14.20;;
24259;SDS011;12384;48.112;18.418;2023-04-01T01:01:29;15.37;;;14.37;;
24259;SDS011;12384;48.112;18.418;2023-04-01T01:03:58;15.47;;;14.47;;
24259;SDS011;12384;48.112;18.418;2023-04-01T01:06:38;15.07;;;14.17;;
24259;SDS011;12384;48.112;18.418;2023-04-01T01:09:18;15.60;;;14.60;;
24259;SDS011;12384;48.112;18.418;2023-04-01T01:11:54;15.50;;;14.47;;
24259;SDS011;12384;48.112;18.418;2023-04-01T01:14:33;15.70;;;14.60;;
24259;SDS011;12384;48.112;18.418;2023-04-01T01:17:12;14.87;;;13.97;;
24259;SDS011;12384;48.112;18.418;2023-04-01T01:20:03;14.63;;;13.73;;
24259;SDS011;12384;48.112;18.418;2023-04-01T01:22:55;15.37;;;14.47;;
24259;SDS011;12384;48.112;18.418;2023-04-01T01:26:12;15.13;;;14.23;;
24259;SDS011;12384;48.112;18.418;2023-04-01T01:28:57;15.40;;;14.20;;
24259;SDS011;12384;48.112;18.418;2023-04-01T01:31:40;15.20;;;14.20;;
24259;SDS011;12384;48.112;18.418;2023-04-01T01:34:15;14.57;;;13.67;;
24259;SDS011;12384;48.112;18.418;2023-04-01T01:36:53;14.60;;;13.70;;
24259;SDS011;12384;48.112;18.418;2023-04-01T01:39:26;14.40;;;13.50;;
24259;SDS011;12384;48.112;18.418;2023-04-01T01:41:59;14.17;;;13.37;;
24259;SDS011;12384;48.112;18.418;2023-04-01T01:44:31;14.90;;;14.00;;
24259;SDS011;12384;48.112;18.418;2023-04-01T01:47:02;14.53;;;13.63;;
24259;SDS011;12384;48.112;18.418;2023-04-01T01:49:30;15.00;;;14.10;;
24259;SDS011;12384;48.112;18.418;2023-04-01T01:52:02;15.30;;;14.30;;
24259;SDS011;12384;48.112;18.418;2023-04-01T01:54:31;14.40;;;13.50;;
24259;SDS011;12384;48.112;18.418;2023-04-01T01:57:02;15.00;;;14.10;;
24259;SDS011;12384;48.112;18.418;2023-04-01T01:59:36;14.07;;;13.27;;
24259;SDS011;12384;48.112;18.418;2023-04-01T02:02:10;14.63;;;13.73;;
24259;SDS011;12384;48.112;18.418;2023-04-01T02:04:41;14.80;;;13.80;;
24259;SDS011;12384;48.112;18.418;2023-04-01T02:07:16;15.83;;;14.93;;
24259;SDS011;12384;48.112;18.418;2023-04-01T02:09:48;16.33;;;15.33;;
24259;SDS011;12384;48.112;18.418;2023-04-01T02:12:18;15.30;;;14.40;;
24259;SDS011;12384;48.112;18.418;2023-04-01T02:14:50;14.77;;;13.77;;
24259;SDS011;12384;48.112;18.418;2023-04-01T02:17:22;14.27;;;13.47;;
24259;SDS011;12384;48.112;18.418;2023-04-01T02:19:55;14.13;;;13.33;;
24259;SDS011;12384;48.112;18.418;2023-04-01T02:22:28;14.37;;;13.57;;
24259;SDS011;12384;48.112;18.418;2023-04-01T02:25:02;14.27;;;13.37;;
24259;SDS011;12384;48.112;18.418;2023-04-01T02:27:34;14.47;;;13.47;;
24259;SDS011;12384;48.112;18.418;2023-04-01T02:30:03;13.33;;;12.53;;
24259;SDS011;12384;48.112;18.418;2023-04-01T02:32:33;14.00;;;13.10;;
24259;SDS011;12384;48.112;18.418;2023-04-01T02:35:05;14.20;;;13.30;;
24259;SDS011;12384;48.112;18.418;2023-04-01T02:37:36;14.23;;;13.27;;
24259;SDS011;12384;48.112;18.418;2023-04-01T02:40:06;14.13;;;13.17;;
24259;SDS011;12384;48.112;18.418;2023-04-01T02:42:36;13.80;;;13.00;;
24259;SDS011;12384;48.112;18.418;2023-04-01T02:45:05;14.77;;;13.87;;
24259;SDS011;12384;48.112;18.418;2023-04-01T02:47:35;14.07;;;13.17;;
24259;SDS011;12384;48.112;18.418;2023-04-01T02:50:04;13.63;;;12.73;;
24259;SDS011;12384;48.112;18.418;2023-04-01T02:52:33;13.90;;;13.10;;
24259;SDS011;12384;48.112;18.418;2023-04-01T02:55:03;13.27;;;12.57;;
24259;SDS011;12384;48.112;18.418;2023-04-01T02:57:33;14.63;;;13.70;;
24259;SDS011;12384;48.112;18.418;2023-04-01T03:00:02;13.63;;;12.83;;
24259;SDS011;12384;48.112;18.418;2023-04-01T03:02:37;14.73;;;13.80;;
24259;SDS011;12384;48.112;18.418;2023-04-01T03:05:06;14.23;;;13.33;;
24259;SDS011;12384;48.112;18.418;2023-04-01T03:07:35;13.80;;;13.00;;
24259;SDS011;12384;48.112;18.418;2023-04-01T03:10:05;14.13;;;13.33;;
24259;SDS011;12384;48.112;18.418;2023-04-01T03:12:35;14.60;;;13.60;;
24259;SDS011;12384;48.112;18.418;2023-04-01T03:15:04;14.80;;;13.80;;
24259;SDS011;12384;48.112;18.418;2023-04-01T03:17:38;13.90;;;13.10;;
24259;SDS011;12384;48.112;18.418;2023-04-01T03:20:07;14.13;;;13.33;;
24259;SDS011;12384;48.112;18.418;2023-04-01T03:22:37;14.27;;;13.47;;
24259;SDS011;12384;48.112;18.418;2023-04-01T03:25:10;14.83;;;14.03;;
24259;SDS011;12384;48.112;18.418;2023-04-01T03:27:38;14.90;;;14.00;;
24259;SDS011;12384;48.112;18.418;2023-04-01T03:30:08;14.50;;;13.70;;
24259;SDS011;12384;48.112;18.418;2023-04-01T03:32:46;15.40;;;14.50;;
24259;SDS011;12384;48.112;18.418;2023-04-01T03:35:14;14.47;;;13.67;;
24259;SDS011;12384;48.112;18.418;2023-04-01T03:37:44;15.03;;;14.13;;
24259;SDS011;12384;48.112;18.418;2023-04-01T03:40:15;15.03;;;14.17;;
24259;SDS011;12384;48.112;18.418;2023-04-01T03:42:43;15.73;;;14.83;;
24259;SDS011;12384;48.112;18.418;2023-04-01T03:45:14;15.53;;;14.63;;
24259;SDS011;12384;48.112;18.418;2023-04-01T03:47:43;15.97;;;15.03;;
24259;SDS011;12384;48.112;18.418;2023-04-01T03:50:11;15.33;;;14.43;;
24259;SDS011;12384;48.112;18.418;2023-04-01T03:52:40;15.33;;;14.43;;
24259;SDS011;12384;48.112;18.418;2023-04-01T03:55:09;15.03;;;14.03;;
24259;SDS011;12384;48.112;18.418;2023-04-01T03:57:40;14.90;;;14.00;;
24259;SDS011;12384;48.112;18.418;2023-04-01T04:00:16;14.30;;;13.50;;
24259;SDS011;12384;48.112;18.418;2023-04-01T04:02:49;14.17;;;13.37;;
24259;SDS011;12384;48.112;18.418;2023-04-01T04:05:24;14.23;;;13.43;;
24259;SDS011;12384;48.112;18.418;2023-04-01T04:07:53;14.10;;;13.30;;
24259;SDS011;12384;48.112;18.418;2023-04-01T04:10:23;12.90;;;12.20;;
24259;SDS011;12384;48.112;18.418;2023-04-01T04:12:53;14.03;;;13.20;;
24259;SDS011;12384;48.112;18.418;2023-04-01T04:15:23;14.20;;;13.40;;
24259;SDS011;12384;48.112;18.418;2023-04-01T04:17:51;14.37;;;13.47;;
24259;SDS011;12384;48.112;18.418;2023-04-01T04:20:21;14.33;;;13.53;;
24259;SDS011;12384;48.112;18.418;2023-04-01T04:22:49;14.50;;;13.70;;
24259;SDS011;12384;48.112;18.418;2023-04-01T04:25:17;15.20;;;14.30;;
24259;SDS011;12384;48.112;18.418;2023-04-01T04:27:46;14.33;;;13.53;;
24259;SDS011;12384;48.112;18.418;2023-04-01T04:30:17;14.80;;;13.90;;
24259;SDS011;12384;48.112;18.418;2023-04-01T04:32:46;14.90;;;14.00;;
24259;SDS011;12384;48.112;18.418;2023-04-01T04:35:15;15.07;;;14.17;;
24259;SDS011;12384;48.112;18.418;2023-04-01T04:37:44;15.10;;;14.10;;
24259;SDS011;12384;48.112;18.418;2023-04-01T04:40:16;14.93;;;14.03;;
24259;SDS011;12384;48.112;18.418;2023-04-01T04:42:44;13.23;;;12.43;;
24259;SDS011;12384;48.112;18.418;2023-04-01T04:45:15;12.87;;;12.17;;
24259;SDS011;12384;48.112;18.418;2023-04-01T04:47:53;14.10;;;13.10;;
24259;SDS011;12384;48.112;18.418;2023-04-01T04:50:22;13.03;;;12.30;;
24259;SDS011;12384;48.112;18.418;2023-04-01T04:52:51;12.27;;;11.57;;
24259;SDS011;12384;48.112;18.418;2023-04-01T04:55:20;12.70;;;12.00;;
24259;SDS011;12384;48.112;18.418;2023-04-01T04:58:02;13.00;;;12.30;;
24259;SDS011;12384;48.112;18.418;2023-04-01T05:00:30;12.70;;;11.90;;
24259;SDS011;12384;48.112;18.418;2023-04-01T05:03:03;12.40;;;11.70;;
24259;SDS011;12384;48.112;18.418;2023-04-01T05:05:32;10.80;;;10.20;;
24259;SDS011;12384;48.112;18.418;2023-04-01T05:08:02;10.90;;;10.20;;
24259;SDS011;12384;48.112;18.418;2023-04-01T05:10:31;10.57;;;9.97;;
24259;SDS011;12384;48.112;18.418;2023-04-01T05:12:59;9.83;;;9.23;;
24259;SDS011;12384;48.112;18.418;2023-04-01T05:15:28;9.30;;;8.80;;
24259;SDS011;12384;48.112;18.418;2023-04-01T05:17:57;9.47;;;8.87;;
24259;SDS011;12384;48.112;18.418;2023-04-01T05:20:27;9.77;;;9.27;;
24259;SDS011;12384;48.112;18.418;2023-04-01T05:22:56;8.53;;;8.03;;
24259;SDS011;12384;48.112;18.418;2023-04-01T05:25:25;7.93;;;7.53;;
24259;SDS011;12384;48.112;18.418;2023-04-01T05:27:53;8.43;;;7.83;;
24259;SDS011;12384;48.112;18.418;2023-04-01T05:30:22;9.60;;;9.00;;
24259;SDS011;12384;48.112;18.418;2023-04-01T05:33:00;8.50;;;8.10;;
24259;SDS011;12384;48.112;18.418;2023-04-01T05:35:30;9.07;;;8.57;;
24259;SDS011;12384;48.112;18.418;2023-04-01T05:37:59;8.80;;;8.10;;
24259;SDS011;12384;48.112;18.418;2023-04-01T05:40:27;9.60;;;8.80;;
24259;SDS011;12384;48.112;18.418;2023-04-01T05:42:56;8.40;;;7.90;;
24259;SDS011;12384;48.112;18.418;2023-04-01T05:45:25;8.67;;;8.17;;
24259;SDS011;12384;48.112;18.418;2023-04-01T05:48:28;8.13;;;7.57;;
24259;SDS011;12384;48.112;18.418;2023-04-01T05:50:58;8.47;;;7.97;;
24259;SDS011;12384;48.112;18.418;2023-04-01T05:53:27;8.60;;;8.00;;
24259;SDS011;12384;48.112;18.418;2023-04-01T05:55:56;9.27;;;8.57;;
24259;SDS011;12384;48.112;18.418;2023-04-01T05:58:24;8.57;;;8.07;;
24259;SDS011;12384;48.112;18.418;2023-04-01T06:00:59;8.80;;;8.30;;
24259;SDS011;12384;48.112;18.418;2023-04-01T06:03:38;9.20;;;8.60;;
24259;SDS011;12384;48.112;18.418;2023-04-01T06:06:10;8.93;;;8.43;;
24259;SDS011;12384;48.112;18.418;2023-04-01T06:08:43;9.83;;;9.30;;
24259;SDS011;12384;48.112;18.418;2023-04-01T06:11:16;9.80;;;9.20;;
24259;SDS011;12384;48.112;18.418;2023-04-01T06:16:55;7.50;;;7.10;;
24259;SDS011;12384;48.112;18.418;2023-04-01T06:19:36;7.03;;;6.63;;
24259;SDS011;12384;48.112;18.418;2023-04-01T06:22:24;7.10;;;6.70;;
24259;SDS011;12384;48.112;18.418;2023-04-01T06:25:32;7.63;;;7.20;;
24259;SDS011;12384;48.112;18.418;2023-04-01T06:28:30;7.80;;;7.30;;
24259;SDS011;12384;48.112;18.418;2023-04-01T06:31:22;7.50;;;7.10;;
24259;SDS011;12384;48.112;18.418;2023-04-01T06:37:19;7.93;;;7.53;;
24259;SDS011;12384;48.112;18.418;2023-04-01T06:40:09;7.93;;;7.43;;
24259;SDS011;12384;48.112;18.418;2023-04-01T06:43:02;7.40;;;7.00;;
24259;SDS011;12384;48.112;18.418;2023-04-01T06:45:59;8.60;;;8.00;;
24259;SDS011;12384;48.112;18.418;2023-04-01T06:49:02;7.70;;;7.20;;
24259;SDS011;12384;48.112;18.418;2023-04-01T06:52:02;7.90;;;7.40;;
24259;SDS011;12384;48.112;18.418;2023-04-01T06:55:00;8.10;;;7.60;;
24259;SDS011;12384;48.112;18.418;2023-04-01T06:57:55;9.03;;;8.33;;
24259;SDS011;12384;48.112;18.418;2023-04-01T07:00:27;7.87;;;7.43;;
24259;SDS011;12384;48.112;18.418;2023-04-01T07:03:02;8.80;;;8.30;;
24259;SDS011;12384;48.112;18.418;2023-04-01T07:05:37;8.23;;;7.80;;
24259;SDS011;12384;48.112;18.418;2023-04-01T07:08:08;8.17;;;7.77;;
24259;SDS011;12384;48.112;18.418;2023-04-01T07:10:43;8.10;;;7.60;;
24259;SDS011;12384;48.112;18.418;2023-04-01T07:13:34;8.50;;;7.83;;
24259;SDS011;12384;48.112;18.418;2023-04-01T07:16:15;8.73;;;8.23;;
24259;SDS011;12384;48.112;18.418;2023-04-01T07:18:48;8.70;;;8.20;;
24259;SDS011;12384;48.112;18.418;2023-04-01T07:21:26;9.10;;;8.60;;
24259;SDS011;12384;48.112;18.418;2023-04-01T07:24:09;9.13;;;8.63;;
24259;SDS011;12384;48.112;18.418;2023-04-01T07:26:54;9.73;;;9.10;;
24259;SDS011;12384;48.112;18.418;2023-04-01T07:29:27;9.40;;;8.90;;
24259;SDS011;12384;48.112;18.418;2023-04-01T07:32:07;9.00;;;8.50;;
24259;SDS011;12384;48.112;18.418;2023-04-01T07:34:46;8.93;;;8.43;;
24259;SDS011;12384;48.112;18.418;2023-04-01T07:37:26;8.70;;;8.20;;
24259;SDS011;12384;48.112;18.418;2023-04-01T07:40:01;9.00;;;8.40;;
24259;SDS011;12384;48.112;18.418;2023-04-01T07:42:45;9.20;;;8.70;;
24259;SDS011;12384;48.112;18.418;2023-04-01T07:45:27;8.50;;;8.00;;
24259;SDS011;12384;48.112;18.418;2023-04-01T07:48:07;9.93;;;9.33;;
24259;SDS011;12384;48.112;18.418;2023-04-01T07:50:46;9.30;;;8.70;;
24259;SDS011;12384;48.112;18.418;2023-04-01T07:53:25;9.10;;;8.60;;
24259;SDS011;12384;48.112;18.418;2023-04-01T07:56:01;8.20;;;7.80;;
24259;SDS011;12384;48.112;18.418;2023-04-01T07:58:41;8.00;;;7.50;;
24259;SDS011;12384;48.112;18.418;2023-04-01T08:01:39;7.77;;;7.37;;
24259;SDS011;12384;48.112;18.418;2023-04-01T08:04:18;7.93;;;7.53;;
24259;SDS011;12384;48.112;18.418;2023-04-01T08:07:03;7.70;;;7.30;;
24259;SDS011;12384;48.112;18.418;2023-04-01T08:09:44;7.90;;;7.37;;
24259;SDS011;12384;48.112;18.418;2023-04-01T08:12:39;7.57;;;7.10;;
24259;SDS011;12384;48.112;18.418;2023-04-01T08:15:36;8.30;;;7.80;;
24259;SDS011;12384;48.112;18.418;2023-04-01T08:18:22;7.93;;;7.53;;
24259;SDS011;12384;48.112;18.418;2023-04-01T08:20:59;9.10;;;8.60;;
24259;SDS011;12384;48.112;18.418;2023-04-01T08:23:30;9.27;;;8.30;;
24259;SDS011;12384;48.112;18.418;2023-04-01T08:26:02;8.30;;;7.80;;
24259;SDS011;12384;48.112;18.418;2023-04-01T08:28:39;8.63;;;8.13;;
24259;SDS011;12384;48.112;18.418;2023-04-01T08:31:15;8.27;;;7.80;;
24259;SDS011;12384;48.112;18.418;2023-04-01T08:33:47;8.30;;;7.80;;
24259;SDS011;12384;48.112;18.418;2023-04-01T08:36:22;8.33;;;7.83;;
24259;SDS011;12384;48.112;18.418;2023-04-01T08:39:21;8.80;;;8.30;;
24259;SDS011;12384;48.112;18.418;2023-04-01T08:45:09;9.60;;;8.80;;
24259;SDS011;12384;48.112;18.418;2023-04-01T08:54:20;8.80;;;8.30;;
24259;SDS011;12384;48.112;18.418;2023-04-01T08:57:07;8.90;;;8.40;;
24259;SDS011;12384;48.112;18.418;2023-04-01T09:00:10;8.70;;;8.10;;
24259;SDS011;12384;48.112;18.418;2023-04-01T09:03:24;9.20;;;8.50;;
24259;SDS011;12384;48.112;18.418;2023-04-01T09:06:32;9.03;;;8.40;;
24259;SDS011;12384;48.112;18.418;2023-04-01T09:09:13;9.10;;;8.33;;
24259;SDS011;12384;48.112;18.418;2023-04-01T09:12:13;8.53;;;7.93;;
24259;SDS011;12384;48.112;18.418;2023-04-01T09:15:07;8.40;;;7.80;;
24259;SDS011;12384;48.112;18.418;2023-04-01T09:18:02;9.10;;;8.50;;
24259;SDS011;12384;48.112;18.418;2023-04-01T09:21:02;8.80;;;8.30;;
24259;SDS011;12384;48.112;18.418;2023-04-01T09:26:53;8.63;;;8.03;;
24259;SDS011;12384;48.112;18.418;2023-04-01T09:29:34;7.53;;;7.13;;
24259;SDS011;12384;48.112;18.418;2023-04-01T09:35:39;8.67;;;8.07;;
24259;SDS011;12384;48.112;18.418;2023-04-01T09:38:20;9.80;;;9.10;;
24259;SDS011;12384;48.112;18.418;2023-04-01T09:40:55;9.37;;;8.77;;
24259;SDS011;12384;48.112;18.418;2023-04-01T09:43:46;8.47;;;7.97;;
24259;SDS011;12384;48.112;18.418;2023-04-01T09:49:34;7.97;;;7.40;;
24259;SDS011;12384;48.112;18.418;2023-04-01T09:52:17;8.73;;;8.13;;
24259;SDS011;12384;48.112;18.418;2023-04-01T09:54:57;7.80;;;7.30;;
24259;SDS011;12384;48.112;18.418;2023-04-01T09:57:48;8.60;;;8.10;;
24259;SDS011;12384;48.112;18.418;2023-04-01T10:01:19;8.20;;;7.80;;
24259;SDS011;12384;48.112;18.418;2023-04-01T10:04:18;7.87;;;7.37;;
24259;SDS011;12384;48.112;18.418;2023-04-01T10:10:25;8.33;;;7.87;;
24259;SDS011;12384;48.112;18.418;2023-04-01T10:16:43;9.73;;;9.13;;
24259;SDS011;12384;48.112;18.418;2023-04-01T10:19:46;9.10;;;8.30;;
24259;SDS011;12384;48.112;18.418;2023-04-01T10:25:57;8.77;;;8.13;;
24259;SDS011;12384;48.112;18.418;2023-04-01T10:29:07;8.80;;;8.10;;
24259;SDS011;12384;48.112;18.418;2023-04-01T10:38:37;9.30;;;8.70;;
24259;SDS011;12384;48.112;18.418;2023-04-01T10:45:07;8.37;;;7.90;;
24259;SDS011;12384;48.112;18.418;2023-04-01T10:51:01;9.33;;;8.73;;
24259;SDS011;12384;48.112;18.418;2023-04-01T10:53:42;9.20;;;8.70;;
24259;SDS011;12384;48.112;18.418;2023-04-01T10:56:58;10.00;;;9.30;;
24259;SDS011;12384;48.112;18.418;2023-04-01T11:07:03;9.53;;;9.03;;
24259;SDS011;12384;48.112;18.418;2023-04-01T11:10:18;9.40;;;8.90;;
24259;SDS011;12384;48.112;18.418;2023-04-01T11:30:33;9.90;;;9.30;;
24259;SDS011;12384;48.112;18.418;2023-04-01T11:33:19;9.40;;;8.80;;
24259;SDS011;12384;48.112;18.418;2023-04-01T11:36:00;10.30;;;9.70;;
24259;SDS011;12384;48.112;18.418;2023-04-01T11:38:52;8.97;;;8.47;;
24259;SDS011;12384;48.112;18.418;2023-04-01T11:41:49;8.60;;;8.20;;
24259;SDS011;12384;48.112;18.418;2023-04-01T11:52:06;9.10;;;8.50;;
24259;SDS011;12384;48.112;18.418;2023-04-01T11:54:56;9.40;;;8.80;;
24259;SDS011;12384;48.112;18.418;2023-04-01T11:57:46;9.00;;;8.50;;
24259;SDS011;12384;48.112;18.418;2023-04-01T12:00:50;8.93;;;8.33;;
24259;SDS011;12384;48.112;18.418;2023-04-01T12:03:54;8.53;;;8.03;;
24259;SDS011;12384;48.112;18.418;2023-04-01T12:06:44;8.80;;;8.40;;
24259;SDS011;12384;48.112;18.418;2023-04-01T12:09:21;8.87;;;8.37;;
24259;SDS011;12384;48.112;18.418;2023-04-01T12:12:00;9.10;;;8.50;;
24259;SDS011;12384;48.112;18.418;2023-04-01T12:14:43;8.93;;;8.40;;
24259;SDS011;12384;48.112;18.418;2023-04-01T12:17:26;9.17;;;8.63;;
24259;SDS011;12384;48.112;18.418;2023-04-01T12:19:59;8.47;;;7.87;;
24259;SDS011;12384;48.112;18.418;2023-04-01T12:22:49;9.10;;;8.60;;
24259;SDS011;12384;48.112;18.418;2023-04-01T12:25:27;8.50;;;8.00;;
24259;SDS011;12384;48.112;18.418;2023-04-01T12:28:32;8.60;;;8.10;;
24259;SDS011;12384;48.112;18.418;2023-04-01T12:31:16;8.77;;;8.27;;
24259;SDS011;12384;48.112;18.418;2023-04-01T12:33:59;8.50;;;8.03;;
24259;SDS011;12384;48.112;18.418;2023-04-01T12:36:43;8.87;;;8.40;;
24259;SDS011;12384;48.112;18.418;2023-04-01T12:39:22;8.60;;;8.10;;
24259;SDS011;12384;48.112;18.418;2023-04-01T12:42:14;8.50;;;8.00;;
24259;SDS011;12384;48.112;18.418;2023-04-01T12:44:53;8.50;;;8.00;;
24259;SDS011;12384;48.112;18.418;2023-04-01T12:47:35;8.40;;;7.90;;
24259;SDS011;12384;48.112;18.418;2023-04-01T12:53:18;8.60;;;8.20;;
24259;SDS011;12384;48.112;18.418;2023-04-01T12:56:02;8.85;;;8.35;;
24259;SDS011;12384;48.112;18.418;2023-04-01T12:58:38;7.78;;;7.38;;
24259;SDS011;12384;48.112;18.418;2023-04-01T13:01:25;7.95;;;7.55;;
24259;SDS011;12384;48.112;18.418;2023-04-01T13:07:34;8.57;;;8.07;;
24259;SDS011;12384;48.112;18.418;2023-04-01T13:10:20;8.63;;;8.10;;
24259;SDS011;12384;48.112;18.418;2023-04-01T13:13:09;8.30;;;7.90;;
24259;SDS011;12384;48.112;18.418;2023-04-01T13:15:49;8.83;;;8.33;;
24259;SDS011;12384;48.112;18.418;2023-04-01T13:18:26;8.60;;;8.10;;
24259;SDS011;12384;48.112;18.418;2023-04-01T13:21:05;8.90;;;8.30;;
24259;SDS011;12384;48.112;18.418;2023-04-01T13:23:54;8.63;;;8.13;;
24259;SDS011;12384;48.112;18.418;2023-04-01T13:26:32;8.40;;;7.90;;
24259;SDS011;12384;48.112;18.418;2023-04-01T13:29:06;8.17;;;7.73;;
24259;SDS011;12384;48.112;18.418;2023-04-01T13:34:44;9.03;;;8.53;;
24259;SDS011;12384;48.112;18.418;2023-04-01T13:37:27;8.40;;;8.00;;
24259;SDS011;12384;48.112;18.418;2023-04-01T13:43:02;8.57;;;8.07;;
24259;SDS011;12384;48.112;18.418;2023-04-01T13:45:38;8.30;;;7.80;;
24259;SDS011;12384;48.112;18.418;2023-04-01T13:48:28;8.10;;;7.70;;
24259;SDS011;12384;48.112;18.418;2023-04-01T13:51:31;8.30;;;7.90;;
24259;SDS011;12384;48.112;18.418;2023-04-01T13:54:42;8.00;;;7.60;;
24259;SDS011;12384;48.112;18.418;2023-04-01T14:00:37;8.37;;;7.97;;
24259;SDS011;12384;48.112;18.418;2023-04-01T14:06:05;8.87;;;8.37;;
24259;SDS011;12384;48.112;18.418;2023-04-01T14:08:49;8.43;;;8.03;;
24259;SDS011;12384;48.112;18.418;2023-04-01T14:11:43;8.50;;;8.00;;
24259;SDS011;12384;48.112;18.418;2023-04-01T14:14:21;7.90;;;7.40;;
24259;SDS011;12384;48.112;18.418;2023-04-01T14:17:03;8.30;;;7.70;;
24259;SDS011;12384;48.112;18.418;2023-04-01T14:19:53;8.00;;;7.50;;
24259;SDS011;12384;48.112;18.418;2023-04-01T14:22:48;8.20;;;7.70;;
24259;SDS011;12384;48.112;18.418;2023-04-01T14:28:32;8.80;;;8.20;;
24259;SDS011;12384;48.112;18.418;2023-04-01T14:31:15;8.53;;;8.03;;
24259;SDS011;12384;48.112;18.418;2023-04-01T14:33:54;9.23;;;8.63;;
24259;SDS011;12384;48.112;18.418;2023-04-01T14:36:37;8.97;;;8.47;;
24259;SDS011;12384;48.112;18.418;2023-04-01T14:39:24;8.50;;;8.00;;
24259;SDS011;12384;48.112;18.418;2023-04-01T14:42:13;7.97;;;7.47;;
24259;SDS011;12384;48.112;18.418;2023-04-01T14:45:00;7.80;;;7.40;;
24259;SDS011;12384;48.112;18.418;2023-04-01T14:47:47;8.20;;;7.80;;
24259;SDS011;12384;48.112;18.418;2023-04-01T14:50:21;8.00;;;7.50;;
24259;SDS011;12384;48.112;18.418;2023-04-01T14:52:56;9.03;;;8.43;;
24259;SDS011;12384;48.112;18.418;2023-04-01T14:55:33;9.03;;;8.53;;
24259;SDS011;12384;48.112;18.418;2023-04-01T14:58:13;9.47;;;8.93;;
24259;SDS011;12384;48.112;18.418;2023-04-01T15:00:48;9.37;;;8.83;;
24259;SDS011;12384;48.112;18.418;2023-04-01T15:03:26;8.93;;;8.43;;
24259;SDS011;12384;48.112;18.418;2023-04-01T15:06:07;8.67;;;8.20;;
24259;SDS011;12384;48.112;18.418;2023-04-01T15:08:50;9.40;;;8.90;;
24259;SDS011;12384;48.112;18.418;2023-04-01T15:11:29;8.80;;;8.30;;
24259;SDS011;12384;48.112;18.418;2023-04-01T15:14:15;9.20;;;8.70;;
24259;SDS011;12384;48.112;18.418;2023-04-01T15:16:54;9.13;;;8.63;;
24259;SDS011;12384;48.112;18.418;2023-04-01T15:19:37;9.70;;;9.10;;
24259;SDS011;12384;48.112;18.418;2023-04-01T15:22:25;9.23;;;8.73;;
24259;SDS011;12384;48.112;18.418;2023-04-01T15:27:55;9.57;;;9.07;;
24259;SDS011;12384;48.112;18.418;2023-04-01T15:30:35;9.27;;;8.60;;
24259;SDS011;12384;48.112;18.418;2023-04-01T15:33:11;9.47;;;8.87;;
24259;SDS011;12384;48.112;18.418;2023-04-01T15:35:57;8.87;;;8.40;;
24259;SDS011;12384;48.112;18.418;2023-04-01T15:38:36;8.50;;;8.00;;
24259;SDS011;12384;48.112;18.418;2023-04-01T15:41:13;8.00;;;7.60;;
24259;SDS011;12384;48.112;18.418;2023-04-01T15:43:44;8.73;;;8.23;;
24259;SDS011;12384;48.112;18.418;2023-04-01T15:46:21;8.47;;;7.97;;
24259;SDS011;12384;48.112;18.418;2023-04-01T15:49:03;8.90;;;8.40;;
24259;SDS011;12384;48.112;18.418;2023-04-01T15:51:45;8.27;;;7.77;;
24259;SDS011;12384;48.112;18.418;2023-04-01T15:54:27;9.00;;;8.50;;
24259;SDS011;12384;48.112;18.418;2023-04-01T15:57:18;9.20;;;8.70;;
24259;SDS011;12384;48.112;18.418;2023-04-01T15:59:55;9.87;;;9.37;;
24259;SDS011;12384;48.112;18.418;2023-04-01T16:02:43;9.00;;;8.60;;
24259;SDS011;12384;48.112;18.418;2023-04-01T16:05:24;8.80;;;8.30;;
24259;SDS011;12384;48.112;18.418;2023-04-01T16:08:08;8.43;;;7.93;;
24259;SDS011;12384;48.112;18.418;2023-04-01T16:10:52;8.43;;;8.00;;
24259;SDS011;12384;48.112;18.418;2023-04-01T16:13:53;8.40;;;7.90;;
24259;SDS011;12384;48.112;18.418;2023-04-01T16:16:31;8.20;;;7.80;;
24259;SDS011;12384;48.112;18.418;2023-04-01T16:22:22;8.20;;;7.80;;
24259;SDS011;12384;48.112;18.418;2023-04-01T16:24:56;8.20;;;7.80;;
24259;SDS011;12384;48.112;18.418;2023-04-01T16:27:35;7.70;;;7.30;;
24259;SDS011;12384;48.112;18.418;2023-04-01T16:30:17;7.73;;;7.33;;
24259;SDS011;12384;48.112;18.418;2023-04-01T16:33:01;8.73;;;8.30;;
24259;SDS011;12384;48.112;18.418;2023-04-01T16:35:35;8.47;;;8.07;;
24259;SDS011;12384;48.112;18.418;2023-04-01T16:38:15;8.03;;;7.63;;
24259;SDS011;12384;48.112;18.418;2023-04-01T16:40:51;8.47;;;7.97;;
24259;SDS011;12384;48.112;18.418;2023-04-01T16:43:30;8.53;;;8.10;;
24259;SDS011;12384;48.112;18.418;2023-04-01T16:49:23;7.70;;;7.30;;
24259;SDS011;12384;48.112;18.418;2023-04-01T16:52:13;8.50;;;8.00;;
24259;SDS011;12384;48.112;18.418;2023-04-01T16:54:47;8.30;;;7.80;;
24259;SDS011;12384;48.112;18.418;2023-04-01T16:57:25;8.10;;;7.70;;
24259;SDS011;12384;48.112;18.418;2023-04-01T16:59:58;9.37;;;8.93;;
24259;SDS011;12384;48.112;18.418;2023-04-01T17:02:31;9.80;;;9.20;;
24259;SDS011;12384;48.112;18.418;2023-04-01T17:05:05;8.27;;;7.87;;
24259;SDS011;12384;48.112;18.418;2023-04-01T17:07:43;9.30;;;8.80;;
24259;SDS011;12384;48.112;18.418;2023-04-01T17:10:25;9.00;;;8.50;;
24259;SDS011;12384;48.112;18.418;2023-04-01T17:13:24;8.50;;;8.10;;
24259;SDS011;12384;48.112;18.418;2023-04-01T17:16:11;8.77;;;8.27;;
24259;SDS011;12384;48.112;18.418;2023-04-01T17:18:55;9.77;;;9.27;;
24259;SDS011;12384;48.112;18.418;2023-04-01T17:21:40;8.90;;;8.40;;
24259;SDS011;12384;48.112;18.418;2023-04-01T17:24:23;7.93;;;7.53;;
24259;SDS011;12384;48.112;18.418;2023-04-01T17:27:03;8.17;;;7.77;;
24259;SDS011;12384;48.112;18.418;2023-04-01T17:29:41;9.27;;;8.77;;